createdAt,value
2022-11-07T00:00:20.686Z,68.13
2022-11-07T00:02:55.527Z,64.33
2022-11-07T00:05:30.562Z,62.20
2022-11-07T00:08:05.371Z,63.23
2022-11-07T00:10:40.183Z,64.67
2022-11-07T00:13:16.217Z,63.00
2022-11-07T00:15:50.288Z,61.87
2022-11-07T00:18:24.039Z,60.87
2022-11-07T00:20:57.787Z,62.67
2022-11-07T00:23:31.858Z,63.50
2022-11-07T00:26:08.726Z,62.17
2022-11-07T00:28:47.648Z,62.70
2022-11-07T00:31:22.192Z,61.47
2022-11-07T00:33:57.175Z,62.10
2022-11-07T00:36:33.398Z,61.80
2022-11-07T00:39:07.914Z,62.50
2022-11-07T00:41:42.848Z,63.40
2022-11-07T00:44:18.907Z,64.70
2022-11-07T00:46:52.932Z,60.47
2022-11-07T00:49:27.166Z,60.00
2022-11-07T00:52:01.120Z,60.90
2022-11-07T00:54:34.538Z,60.53
2022-11-07T00:57:09.243Z,60.20
2022-11-07T00:59:45.280Z,57.47
2022-11-07T01:02:20.261Z,56.87
2022-11-07T01:05:10.060Z,55.50
2022-11-07T01:07:45.265Z,52.97
2022-11-07T01:10:19.817Z,55.53
2022-11-07T01:12:54.152Z,54.00
2022-11-07T01:15:30.282Z,55.47
2022-11-07T01:18:05.082Z,52.97
2022-11-07T01:20:38.709Z,53.80
2022-11-07T01:23:13.406Z,51.70
2022-11-07T01:25:48.287Z,51.50
2022-11-07T01:28:22.068Z,52.10
2022-11-07T01:30:58.490Z,52.80
2022-11-07T01:33:32.429Z,52.23
2022-11-07T01:36:10.030Z,51.40
2022-11-07T01:38:46.599Z,48.50
2022-11-07T01:41:26.735Z,50.07
2022-11-07T01:44:04.321Z,47.83
2022-11-07T01:46:42.421Z,47.33
2022-11-07T01:49:20.594Z,48.33
2022-11-07T01:51:59.576Z,47.93
2022-11-07T01:54:39.693Z,46.03
2022-11-07T01:57:17.550Z,45.60
2022-11-07T01:59:52.525Z,45.77
2022-11-07T02:02:30.853Z,46.23
2022-11-07T02:05:07.295Z,45.63
2022-11-07T02:07:42.961Z,44.77
2022-11-07T02:10:16.880Z,45.30
2022-11-07T02:12:51.491Z,44.63
2022-11-07T02:15:27.450Z,44.80
2022-11-07T02:18:04.515Z,44.83
2022-11-07T02:20:38.751Z,44.77
2022-11-07T02:23:17.622Z,44.50
2022-11-07T02:25:53.434Z,42.80
2022-11-07T02:28:31.615Z,43.30
2022-11-07T02:31:05.575Z,43.17
2022-11-07T02:33:39.133Z,42.83
2022-11-07T02:36:19.439Z,43.20
2022-11-07T02:38:58.456Z,42.90
2022-11-07T02:41:54.378Z,44.27
2022-11-07T02:44:29.335Z,43.60
2022-11-07T02:47:03.947Z,43.50
2022-11-07T02:49:38.069Z,42.70
2022-11-07T02:52:11.804Z,42.47
2022-11-07T02:54:46.184Z,43.43
2022-11-07T02:57:22.238Z,41.87
2022-11-07T02:59:56.042Z,43.50
2022-11-07T03:02:31.426Z,42.63
2022-11-07T03:05:20.703Z,41.23
2022-11-07T03:07:55.339Z,42.30
2022-11-07T03:10:29.216Z,42.10
2022-11-07T03:13:06.021Z,41.10
2022-11-07T03:15:40.166Z,41.90
2022-11-07T03:18:14.251Z,40.30
2022-11-07T03:20:48.270Z,39.97
2022-11-07T03:23:22.936Z,40.87
2022-11-07T03:26:00.711Z,40.27
2022-11-07T03:28:36.577Z,40.13
2022-11-07T03:31:10.953Z,40.20
2022-11-07T03:33:45.305Z,47.70
2022-11-07T03:36:20.090Z,43.30
2022-11-07T03:38:54.063Z,40.20
2022-11-07T03:41:28.762Z,45.77
2022-11-07T03:44:04.675Z,40.67
2022-11-07T03:46:39.328Z,39.93
2022-11-07T03:49:14.064Z,38.30
2022-11-07T03:51:47.472Z,38.33
2022-11-07T03:54:20.680Z,39.03
2022-11-07T03:56:56.031Z,37.73
2022-11-07T03:59:32.099Z,39.00
2022-11-07T04:02:07.021Z,38.77
2022-11-07T04:04:41.865Z,40.17
2022-11-07T04:07:16.566Z,41.70
2022-11-07T04:09:50.638Z,39.87
2022-11-07T04:12:39.739Z,39.63
2022-11-07T04:15:32.931Z,51.70
2022-11-07T04:18:07.710Z,39.50
2022-11-07T04:20:42.846Z,40.10
2022-11-07T04:23:16.709Z,41.73
2022-11-07T04:26:07.027Z,40.43
2022-11-07T04:28:42.163Z,38.90
2022-11-07T04:31:19.476Z,40.03
2022-11-07T04:33:54.776Z,40.07
2022-11-07T04:36:29.161Z,39.80
2022-11-07T04:39:02.688Z,40.37
2022-11-07T04:41:38.017Z,42.10
2022-11-07T04:44:12.156Z,39.90
2022-11-07T04:46:48.200Z,38.60
2022-11-07T04:49:24.183Z,37.20
2022-11-07T04:52:02.218Z,37.07
2022-11-07T04:54:35.283Z,42.47
2022-11-07T04:57:09.939Z,41.03
2022-11-07T04:59:44.035Z,37.40
2022-11-07T05:02:21.322Z,37.27
2022-11-07T05:04:55.459Z,37.80
2022-11-07T05:07:29.967Z,35.37
2022-11-07T05:10:07.265Z,36.93
2022-11-07T05:12:45.918Z,36.30
2022-11-07T05:15:20.638Z,36.00
2022-11-07T05:17:56.798Z,36.90
2022-11-07T05:20:36.041Z,37.23
2022-11-07T05:23:16.502Z,40.23
2022-11-07T05:25:51.098Z,36.47
2022-11-07T05:28:35.365Z,38.37
2022-11-07T05:31:17.753Z,38.33
2022-11-07T05:33:54.777Z,36.97
2022-11-07T05:36:32.055Z,34.50
2022-11-07T05:39:06.668Z,36.63
2022-11-07T05:41:41.844Z,36.20
2022-11-07T05:44:17.491Z,37.03
2022-11-07T05:46:51.813Z,35.80
2022-11-07T05:49:28.285Z,36.27
2022-11-07T05:52:02.484Z,35.63
2022-11-07T05:54:37.077Z,34.93
2022-11-07T05:57:13.180Z,35.70
2022-11-07T05:59:48.971Z,35.43
2022-11-07T06:02:23.331Z,36.30
2022-11-07T06:04:59.551Z,35.97
2022-11-07T06:07:34.467Z,34.97
2022-11-07T06:10:10.346Z,36.03
2022-11-07T06:12:45.661Z,35.23
2022-11-07T06:15:21.261Z,35.07
2022-11-07T06:17:54.062Z,36.53
2022-11-07T06:20:29.627Z,34.90
2022-11-07T06:23:03.909Z,34.93
2022-11-07T06:25:40.191Z,35.50
2022-11-07T06:28:16.667Z,34.93
2022-11-07T06:30:50.685Z,34.50
2022-11-07T06:33:27.034Z,34.20
2022-11-07T06:36:10.892Z,34.63
2022-11-07T06:38:45.837Z,35.10
2022-11-07T06:41:20.039Z,34.37
2022-11-07T06:43:56.127Z,37.33
2022-11-07T06:46:30.757Z,35.53
2022-11-07T06:49:04.831Z,35.03
2022-11-07T06:51:44.055Z,35.63
2022-11-07T06:54:22.483Z,35.50
2022-11-07T06:56:56.822Z,37.50
2022-11-07T06:59:30.510Z,33.07
2022-11-07T07:02:04.436Z,33.67
2022-11-07T07:04:38.947Z,32.90
2022-11-07T07:07:15.166Z,33.47
2022-11-07T07:09:50.164Z,33.50
2022-11-07T07:12:24.405Z,33.80
2022-11-07T07:14:58.632Z,33.37
2022-11-07T07:17:33.934Z,33.97
2022-11-07T07:20:08.775Z,33.80
2022-11-07T07:22:45.556Z,33.43
2022-11-07T07:25:19.465Z,33.40
2022-11-07T07:27:53.605Z,33.57
2022-11-07T07:30:28.563Z,32.60
2022-11-07T07:33:02.483Z,34.70
2022-11-07T07:35:37.539Z,36.03
2022-11-07T07:38:14.446Z,35.13
2022-11-07T07:40:51.866Z,35.63
2022-11-07T07:43:25.938Z,32.87
2022-11-07T07:46:01.889Z,32.93
2022-11-07T07:48:37.027Z,31.97
2022-11-07T07:51:12.014Z,33.23
2022-11-07T07:53:48.993Z,34.57
2022-11-07T07:56:22.848Z,34.93
2022-11-07T07:58:57.163Z,33.47
2022-11-07T08:01:48.858Z,34.07
2022-11-07T08:04:27.361Z,34.40
2022-11-07T08:07:01.662Z,33.97
2022-11-07T08:09:39.633Z,34.13
2022-11-07T08:12:13.250Z,33.30
2022-11-07T08:14:47.087Z,33.20
2022-11-07T08:17:20.886Z,32.90
2022-11-07T08:19:56.612Z,35.73
2022-11-07T08:22:30.892Z,36.40
2022-11-07T08:25:06.372Z,37.73
2022-11-07T08:27:41.250Z,36.40
2022-11-07T08:30:18.174Z,36.10
2022-11-07T08:32:51.754Z,34.73
2022-11-07T08:35:26.438Z,36.40
2022-11-07T08:38:01.021Z,35.33
2022-11-07T08:40:36.232Z,37.20
2022-11-07T08:43:10.038Z,36.90
2022-11-07T08:45:44.955Z,36.00
2022-11-07T08:48:19.626Z,36.93
2022-11-07T08:50:57.613Z,35.90
2022-11-07T08:53:32.773Z,35.50
2022-11-07T08:56:09.668Z,35.27
2022-11-07T08:58:44.220Z,35.33
2022-11-07T09:01:18.677Z,35.73
2022-11-07T09:03:57.617Z,35.00
2022-11-07T09:06:34.126Z,34.90
2022-11-07T09:09:10.495Z,35.73
2022-11-07T09:11:49.651Z,35.90
2022-11-07T09:14:23.847Z,36.40
2022-11-07T09:16:58.576Z,36.80
2022-11-07T09:19:34.748Z,36.40
2022-11-07T09:22:08.706Z,36.70
2022-11-07T09:24:43.682Z,37.43
2022-11-07T09:27:20.462Z,37.87
2022-11-07T09:29:55.715Z,39.43
2022-11-07T09:32:44.408Z,39.60
2022-11-07T09:35:19.044Z,39.13
2022-11-07T09:37:54.326Z,39.40
2022-11-07T09:40:41.610Z,39.03
2022-11-07T09:46:43.944Z,39.07
2022-11-07T09:49:22.675Z,38.37
2022-11-07T09:52:00.199Z,38.97
2022-11-07T09:54:36.802Z,37.90
2022-11-07T09:57:14.356Z,38.77
2022-11-07T09:59:56.693Z,38.47
2022-11-07T10:02:35.590Z,38.67
2022-11-07T10:05:11.357Z,39.83
2022-11-07T10:07:52.492Z,38.63
2022-11-07T10:10:31.488Z,40.27
2022-11-07T10:13:20.860Z,40.43
2022-11-07T10:16:08.472Z,38.07
2022-11-07T10:18:56.869Z,39.63
2022-11-07T10:21:38.700Z,39.07
2022-11-07T10:24:29.538Z,39.13
2022-11-07T10:27:04.815Z,39.13
2022-11-07T10:29:49.483Z,38.27
2022-11-07T10:32:30.556Z,39.43
2022-11-07T10:35:19.899Z,39.27
2022-11-07T10:37:59.725Z,40.10
2022-11-07T10:40:53.008Z,40.57
2022-11-07T10:43:36.419Z,39.87
2022-11-07T10:46:17.430Z,39.40
2022-11-07T10:49:02.329Z,40.73
2022-11-07T10:51:41.576Z,41.70
2022-11-07T10:54:25.770Z,39.17
2022-11-07T10:57:07.240Z,40.03
2022-11-07T10:59:43.466Z,39.30
2022-11-07T11:02:25.357Z,38.83
2022-11-07T11:05:04.170Z,39.40
2022-11-07T11:07:41.618Z,38.83
2022-11-07T11:10:24.564Z,41.53
2022-11-07T11:12:59.221Z,40.73
2022-11-07T11:15:35.741Z,39.23
2022-11-07T11:18:18.093Z,40.67
2022-11-07T11:21:03.048Z,40.47
2022-11-07T11:23:40.708Z,38.77
2022-11-07T11:26:29.994Z,40.07
2022-11-07T11:29:07.432Z,40.17
2022-11-07T11:31:46.123Z,38.50
2022-11-07T11:34:26.384Z,40.73
2022-11-07T11:37:15.187Z,39.30
2022-11-07T11:39:53.394Z,40.33
2022-11-07T11:42:36.715Z,40.87
2022-11-07T11:45:19.982Z,40.57
2022-11-07T11:48:00.737Z,39.70
2022-11-07T11:50:42.547Z,39.50
2022-11-07T11:53:26.166Z,41.57
2022-11-07T11:56:12.696Z,41.90
2022-11-07T11:58:53.291Z,42.40
2022-11-07T12:01:35.420Z,41.10
2022-11-07T12:04:30.916Z,42.70
2022-11-07T12:07:12.248Z,42.43
2022-11-07T12:09:52.056Z,40.83
2022-11-07T12:12:37.485Z,43.73
2022-11-07T12:15:39.964Z,42.30
2022-11-07T12:18:23.438Z,42.07
2022-11-07T12:21:09.425Z,43.70
2022-11-07T12:24:00.118Z,42.87
2022-11-07T12:26:43.266Z,44.27
2022-11-07T12:29:32.842Z,43.63
2022-11-07T12:32:20.853Z,44.07
2022-11-07T12:35:16.889Z,44.00
2022-11-07T12:38:07.307Z,44.53
2022-11-07T12:41:04.102Z,44.17
2022-11-07T12:43:51.348Z,44.50
2022-11-07T12:46:33.131Z,42.40
2022-11-07T12:49:26.884Z,42.67
2022-11-07T12:52:09.039Z,44.00
2022-11-07T12:54:51.799Z,42.97
2022-11-07T12:57:29.562Z,43.10
2022-11-07T13:00:13.057Z,43.67
2022-11-07T13:03:01.103Z,42.23
2022-11-07T13:05:57.571Z,42.03
2022-11-07T13:08:42.167Z,41.20
2022-11-07T13:11:23.732Z,41.97
2022-11-07T13:14:24.705Z,41.13
2022-11-07T13:17:21.947Z,41.47
2022-11-07T13:20:07.854Z,41.50
2022-11-07T13:22:43.701Z,41.23
2022-11-07T13:25:39.302Z,49.40
2022-11-07T13:28:43.844Z,42.83
2022-11-07T13:31:39.165Z,43.07
2022-11-07T13:34:32.627Z,40.93
2022-11-07T13:37:09.531Z,41.87
2022-11-07T13:39:44.971Z,40.30
2022-11-07T13:42:23.706Z,41.97
2022-11-07T13:45:01.439Z,42.33
2022-11-07T13:47:45.386Z,40.50
2022-11-07T13:50:29.089Z,42.23
2022-11-07T13:53:13.052Z,39.83
2022-11-07T13:55:56.899Z,39.57
2022-11-07T13:58:42.019Z,41.70
2022-11-07T14:01:22.593Z,40.03
2022-11-07T14:03:58.102Z,40.23
2022-11-07T14:06:39.359Z,41.33
2022-11-07T14:09:20.136Z,38.67
2022-11-07T14:11:56.669Z,40.27
2022-11-07T14:14:32.626Z,40.33
2022-11-07T14:17:09.858Z,40.67
2022-11-07T14:19:46.529Z,39.27
2022-11-07T14:22:34.578Z,40.03
2022-11-07T14:25:24.835Z,40.57
2022-11-07T14:28:01.678Z,40.00
2022-11-07T14:30:37.454Z,40.37
2022-11-07T14:33:21.457Z,39.77
2022-11-07T14:35:57.268Z,38.87
2022-11-07T14:38:37.219Z,39.50
2022-11-07T14:41:16.273Z,39.17
2022-11-07T14:43:52.624Z,38.57
2022-11-07T14:46:29.170Z,40.27
2022-11-07T14:49:04.401Z,41.37
2022-11-07T14:51:41.083Z,38.57
2022-11-07T14:54:22.454Z,39.07
2022-11-07T14:57:00.840Z,39.47
2022-11-07T14:59:36.863Z,39.03
2022-11-07T15:02:28.484Z,37.67
2022-11-07T15:05:10.682Z,37.40
2022-11-07T15:07:55.020Z,38.37
2022-11-07T15:10:40.926Z,38.67
2022-11-07T15:13:30.216Z,38.47
2022-11-07T15:16:10.323Z,39.53
2022-11-07T15:18:48.280Z,39.73
2022-11-07T15:21:35.141Z,38.87
2022-11-07T15:24:35.175Z,37.67
2022-11-07T15:27:21.973Z,38.53
2022-11-07T15:32:51.293Z,39.30
2022-11-07T15:35:43.419Z,39.93
2022-11-07T15:38:22.215Z,39.13
2022-11-07T15:40:58.402Z,37.53
2022-11-07T15:43:34.973Z,38.53
2022-11-07T15:46:21.049Z,38.07
2022-11-07T15:48:55.541Z,36.77
2022-11-07T15:51:29.764Z,37.93
2022-11-07T15:54:03.566Z,37.27
2022-11-07T15:56:37.998Z,38.23
2022-11-07T15:59:22.798Z,37.60
2022-11-07T16:01:58.063Z,37.17
2022-11-07T16:04:35.269Z,36.83
2022-11-07T16:07:16.408Z,37.07
2022-11-07T16:09:52.348Z,37.63
2022-11-07T16:12:27.579Z,39.40
2022-11-07T16:15:04.023Z,37.70
2022-11-07T16:17:37.466Z,37.77
2022-11-07T16:20:18.846Z,38.73
2022-11-07T16:22:54.699Z,39.20
2022-11-07T16:25:31.623Z,39.23
2022-11-07T16:28:06.659Z,39.40
2022-11-07T16:30:43.181Z,38.83
2022-11-07T16:33:18.175Z,38.77
2022-11-07T16:35:55.757Z,40.23
2022-11-07T16:38:35.066Z,39.90
2022-11-07T16:41:10.007Z,40.90
2022-11-07T16:43:44.626Z,40.70
2022-11-07T16:46:23.551Z,42.63
2022-11-07T16:49:01.772Z,42.07
2022-11-07T16:51:36.583Z,41.70
2022-11-07T16:54:11.494Z,40.73
2022-11-07T16:56:48.429Z,40.57
2022-11-07T16:59:24.453Z,40.97
2022-11-07T17:02:01.969Z,41.37
2022-11-07T17:04:37.328Z,41.17
2022-11-07T17:07:11.663Z,40.87
2022-11-07T17:09:45.312Z,40.83
2022-11-07T17:12:21.321Z,40.17
2022-11-07T17:14:56.234Z,41.53
2022-11-07T17:17:32.682Z,40.93
2022-11-07T17:20:07.230Z,41.17
2022-11-07T17:22:40.930Z,41.57
2022-11-07T17:25:18.905Z,39.87
2022-11-07T17:27:53.811Z,39.13
2022-11-07T17:30:28.656Z,39.63
2022-11-07T17:33:04.634Z,39.10
2022-11-07T17:35:41.095Z,38.83
2022-11-07T17:38:20.520Z,38.10
2022-11-07T17:40:54.731Z,40.83
2022-11-07T17:43:28.974Z,39.17
2022-11-07T17:46:02.583Z,39.37
2022-11-07T17:48:42.206Z,39.20
2022-11-07T17:51:19.142Z,40.03
2022-11-07T17:53:54.185Z,40.33
2022-11-07T17:56:31.203Z,39.00
2022-11-07T17:59:07.126Z,39.00
2022-11-07T18:01:43.724Z,40.03
2022-11-07T18:04:20.733Z,40.33
2022-11-07T18:06:54.427Z,40.13
2022-11-07T18:09:29.092Z,39.63
2022-11-07T18:12:03.943Z,40.53
2022-11-07T18:14:37.960Z,39.20
2022-11-07T18:17:13.217Z,38.80
2022-11-07T18:19:48.740Z,38.67
2022-11-07T18:22:22.839Z,38.37
2022-11-07T18:24:56.799Z,38.87
2022-11-07T18:27:31.470Z,38.03
2022-11-07T18:30:07.867Z,37.47
2022-11-07T18:32:42.316Z,38.70
2022-11-07T18:35:18.992Z,37.93
2022-11-07T18:37:53.922Z,36.80
2022-11-07T18:40:28.421Z,36.37
2022-11-07T18:43:01.845Z,36.33
2022-11-07T18:45:36.401Z,36.93
2022-11-07T18:48:11.173Z,38.53
2022-11-07T18:50:46.486Z,38.67
2022-11-07T18:53:20.909Z,38.97
2022-11-07T18:56:02.288Z,40.03
2022-11-07T18:58:37.586Z,40.90
2022-11-07T19:01:14.511Z,39.50
2022-11-07T19:03:49.698Z,39.43
2022-11-07T19:06:27.468Z,40.27
2022-11-07T19:09:01.503Z,39.60
2022-11-07T19:11:36.149Z,41.37
2022-11-07T19:14:10.914Z,40.73
2022-11-07T19:16:45.523Z,40.93
2022-11-07T19:19:19.239Z,40.87
2022-11-07T19:21:54.434Z,39.67
2022-11-07T19:24:28.828Z,39.77
2022-11-07T19:27:04.185Z,42.33
2022-11-07T19:29:38.253Z,41.93
2022-11-07T19:32:12.208Z,40.50
2022-11-07T19:34:46.200Z,41.87
2022-11-07T19:37:22.004Z,42.37
2022-11-07T19:39:56.599Z,42.30
2022-11-07T19:42:31.949Z,41.40
2022-11-07T19:45:05.824Z,42.77
2022-11-07T19:47:40.239Z,40.70
2022-11-07T19:50:14.001Z,40.83
2022-11-07T19:52:50.313Z,39.47
2022-11-07T19:55:24.393Z,39.20
2022-11-07T19:57:57.377Z,37.87
2022-11-07T20:00:30.545Z,37.53
2022-11-07T20:03:04.357Z,37.40
2022-11-07T20:05:37.421Z,37.60
2022-11-07T20:08:14.619Z,38.13
2022-11-07T20:10:51.658Z,36.10
2022-11-07T20:13:25.234Z,35.87
2022-11-07T20:16:02.557Z,36.80
2022-11-07T20:18:37.141Z,36.43
2022-11-07T20:21:14.459Z,36.10
2022-11-07T20:23:55.192Z,35.57
2022-11-07T20:26:30.553Z,35.57
2022-11-07T20:29:04.042Z,35.00
2022-11-07T20:31:41.249Z,34.90
2022-11-07T20:34:19.086Z,35.83
2022-11-07T20:36:55.127Z,35.60
2022-11-07T20:39:31.856Z,35.10
2022-11-07T20:42:06.639Z,35.33
2022-11-07T20:44:42.362Z,36.73
2022-11-07T20:47:16.096Z,34.93
2022-11-07T20:49:50.662Z,34.17
2022-11-07T20:52:24.534Z,34.40
2022-11-07T20:55:01.515Z,35.63
2022-11-07T20:57:35.875Z,34.27
2022-11-07T21:00:10.365Z,33.40
2022-11-07T21:02:45.267Z,34.00
2022-11-07T21:05:19.126Z,34.70
2022-11-07T21:07:54.000Z,34.47
2022-11-07T21:10:30.044Z,33.27
2022-11-07T21:13:03.480Z,33.70
2022-11-07T21:15:40.270Z,32.93
2022-11-07T21:18:14.192Z,33.20
2022-11-07T21:20:49.216Z,32.00
2022-11-07T21:23:24.536Z,33.10
2022-11-07T21:26:01.276Z,32.60
2022-11-07T21:28:36.293Z,31.93
2022-11-07T21:31:13.241Z,33.37
2022-11-07T21:33:48.902Z,31.50
2022-11-07T21:36:25.367Z,30.77
2022-11-07T21:39:01.079Z,31.10
2022-11-07T21:41:38.270Z,31.03
2022-11-07T21:44:14.496Z,29.13
2022-11-07T21:46:49.112Z,30.97
2022-11-07T21:49:23.318Z,30.33
2022-11-07T21:51:58.870Z,29.40
2022-11-07T21:54:33.226Z,30.90
2022-11-07T21:57:09.382Z,29.43
2022-11-07T21:59:44.105Z,29.43
2022-11-07T22:02:19.333Z,28.93
2022-11-07T22:04:54.587Z,27.83
2022-11-07T22:07:29.521Z,27.47
2022-11-07T22:10:04.385Z,27.97
2022-11-07T22:12:41.264Z,28.33
2022-11-07T22:15:16.393Z,28.53
2022-11-07T22:17:51.068Z,27.27
2022-11-07T22:20:25.645Z,27.20
2022-11-07T22:22:59.808Z,26.77
2022-11-07T22:25:34.652Z,26.80
2022-11-07T22:28:11.481Z,27.33
2022-11-07T22:30:45.823Z,26.03
2022-11-07T22:33:20.788Z,27.80
2022-11-07T22:35:56.051Z,26.40
2022-11-07T22:38:31.879Z,25.40
2022-11-07T22:41:07.540Z,27.47
2022-11-07T22:43:44.744Z,26.80
2022-11-07T22:46:21.412Z,27.97
2022-11-07T22:48:56.331Z,26.00
2022-11-07T22:51:32.898Z,26.40
2022-11-07T22:54:09.425Z,25.60
2022-11-07T22:56:44.737Z,27.07
2022-11-07T22:59:20.937Z,25.90
2022-11-07T23:01:55.319Z,26.20
2022-11-07T23:04:33.020Z,26.00
2022-11-07T23:07:07.792Z,25.07
2022-11-07T23:09:42.676Z,26.37
2022-11-07T23:12:17.294Z,26.50
2022-11-07T23:15:00.535Z,25.47
2022-11-07T23:17:36.299Z,24.83
2022-11-07T23:20:12.431Z,25.03
2022-11-07T23:22:47.599Z,26.00
2022-11-07T23:25:22.879Z,25.57
2022-11-07T23:27:57.743Z,24.47
2022-11-07T23:30:34.534Z,25.47
2022-11-07T23:33:16.703Z,24.87
2022-11-07T23:35:52.450Z,25.47
2022-11-07T23:38:29.132Z,25.30
2022-11-07T23:41:06.561Z,25.30
2022-11-07T23:43:40.820Z,26.43
2022-11-07T23:46:34.251Z,26.40
2022-11-07T23:49:24.187Z,26.20
2022-11-07T23:51:59.948Z,25.77
2022-11-07T23:54:50.419Z,26.20
2022-11-07T23:57:25.371Z,24.53
